ADDS TAF Board (Experimental) INFO

IDs: Format: Expanded Condensed

Updated at: 1154 UTC 21 Oct 2014

KDTW - Detroit Metro/Wayne, MI, US

Issued at 1127 UTC 21 Oct 2014
Time1142Z21/12Z21/13Z21/14Z21/15Z21/16Z21/17Z21/18Z21/19Z21/20Z21/21Z21/22Z21/23Z22/00Z
TypeOBSPRVLPRVLPRVLPRVLPRVLPRVLPRVLPRVLPRVLPRVLPRVLPRVLPRVL
VIS10>6>6>6>6>6>6>6>6>6>6>6>6>6
CIG1215151515252525252525253535
CoverOVCOVCOVCOVCOVCOVCOVCOVCOVCOVCOVCOVCBKNBKN
FltCatMVFRMVFRMVFRMVFRMVFRMVFRMVFRMVFRMVFRMVFRMVFRMVFRVFRVFR
WX---SHRA-SHRA-SHRA-SHRA------------------
WDir320320320320320340340340340340340340360360
WSpd988881212121212121288
WGst----------20202020202020----
R03/21
XWnd87777999999944
XGst----------15151515151515----
HWnd33333888888877
HGst----------13131313131313----
R04/22
XWnd87777999999944
XGst----------15151515151515----
HWnd33333888888877
HGst----------13131313131313----
R09/27
XWnd766661111111111111188
XGst----------19191919191919----
HWnd-6-5-5-5-5-4-4-4-4-4-4-400
HGst-----------7-7-7-7-7-7-7----
Raw TAF
KDTW 211127Z 2112/2218 32008KT P6SM -SHRA OVC015
  FM211600 34012G20KT P6SM OVC025
  FM212300 36008KT P6SM BKN035
  FM221200 35007KT P6SM SCT035


Raw METAR
KDTW 211142Z 32009KT 10SM OVC012 09/07 A2995 RMK AO2 $
KDTW 211053Z 31007KT 10SM OVC020 09/06 A2994 RMK AO2 SLP138 T00940061

TAF Board Legend

Hazard VFR MVFR IFR LIFR
Visibility (sm) >5 3≤X≤5 1≤X<3 <1
Ceiling (100 ft) >30 10≤X≤30 5≤X<10 <5
Wind Speed (kt) <10 10≤X<20 20≤X<30 ≥30
Wind Gust (kt) <15 15≤X<25 25≤X<35 ≥35
Weather No Wx Reported VCTS,-TS,-FZRA TS,FZRA +TS,+FZRA


Page loaded:  11:54 UTC  |   04:54 AM Pacific  |   05:54 AM Mountain  |   06:54 AM Central  |   07:54 AM Eastern

 

ADVISORIES

FORECASTS

FORECASTS

OBSERVATIONS

USER TOOLS

ABOUT US